createdAt,value
2022-12-01T00:02:05.351Z,89.43
2022-12-01T00:29:33.380Z,89.37
2022-12-01T00:32:00.886Z,89.44
2022-12-01T00:34:50.420Z,89.20
2022-12-01T00:38:00.174Z,89.19
2022-12-01T00:40:51.988Z,89.14
2022-12-01T00:48:49.892Z,89.13
2022-12-01T00:49:43.292Z,89.45
2022-12-01T00:52:32.699Z,89.03
2022-12-01T00:55:46.253Z,88.97
2022-12-01T01:19:43.349Z,89.64
2022-12-01T02:42:58.443Z,90.47
2022-12-01T03:00:39.029Z,89.92
2022-12-01T03:10:55.063Z,89.80
2022-12-01T03:14:04.282Z,89.79
2022-12-01T03:20:28.386Z,89.72
2022-12-01T03:23:18.373Z,89.47
2022-12-01T03:25:55.454Z,89.43
2022-12-01T03:31:47.156Z,89.79
2022-12-01T03:31:48.245Z,89.43
2022-12-01T03:34:48.451Z,89.97
2022-12-01T03:40:35.915Z,90.12
2022-12-01T03:43:17.586Z,90.13
2022-12-01T03:46:20.842Z,90.33
2022-12-01T03:49:04.417Z,90.46
2022-12-01T03:52:01.062Z,90.12
2022-12-01T03:59:35.720Z,89.85
2022-12-01T04:02:11.182Z,89.68
2022-12-01T04:34:58.889Z,90.13
2022-12-01T04:49:01.645Z,90.10
2022-12-01T05:05:28.686Z,89.47
2022-12-01T05:08:32.692Z,89.38
2022-12-01T05:11:07.938Z,88.95
2022-12-01T05:14:52.192Z,89.09
2022-12-01T05:17:52.116Z,88.56
2022-12-01T05:20:58.745Z,88.41
2022-12-01T05:27:35.453Z,88.55
2022-12-01T05:30:14.960Z,88.54
2022-12-01T05:33:05.387Z,88.54
2022-12-01T05:42:37.475Z,88.33
2022-12-01T05:45:56.387Z,88.22
2022-12-01T05:48:53.427Z,87.93
2022-12-01T05:51:32.535Z,87.90
2022-12-01T05:54:08.942Z,87.83
2022-12-01T06:00:25.778Z,87.41
2022-12-01T06:03:18.866Z,87.34
2022-12-01T06:05:46.541Z,87.16
2022-12-01T06:08:19.287Z,87.23
2022-12-01T06:10:48.869Z,86.84
2022-12-01T06:13:28.024Z,86.89
2022-12-01T06:16:18.238Z,87.12
2022-12-01T06:21:35.340Z,87.05
2022-12-01T06:24:15.549Z,87.21
2022-12-01T06:26:55.871Z,87.36
2022-12-01T06:29:22.386Z,87.27
2022-12-01T06:32:01.257Z,87.40
2022-12-01T06:35:01.977Z,87.40
2022-12-01T06:37:59.409Z,87.40
2022-12-01T06:43:30.173Z,87.52
2022-12-01T06:49:38.772Z,87.67
2022-12-01T06:52:18.224Z,87.71
2022-12-01T06:54:47.241Z,87.71
2022-12-01T07:05:05.088Z,87.54
2022-12-01T07:11:26.301Z,87.66
2022-12-01T07:15:09.445Z,87.58
2022-12-01T07:18:17.190Z,87.76
2022-12-01T09:12:29.651Z,86.84
2022-12-01T09:14:56.295Z,86.96
2022-12-01T09:17:23.692Z,86.92
2022-12-01T09:19:50.545Z,86.43
2022-12-01T09:22:17.362Z,86.00
2022-12-01T09:24:43.877Z,86.18
2022-12-01T09:27:10.531Z,86.39
2022-12-01T09:29:37.188Z,86.45
2022-12-01T09:32:03.917Z,86.89
2022-12-01T09:34:30.443Z,86.50
2022-12-01T09:36:58.401Z,85.74
2022-12-01T09:39:25.592Z,85.89
2022-12-01T09:42:13.803Z,85.86
2022-12-01T09:44:51.346Z,85.48
2022-12-01T09:47:46.646Z,84.81
2022-12-01T09:50:21.824Z,84.97
2022-12-01T09:52:59.827Z,84.08
2022-12-01T09:55:26.644Z,83.98
2022-12-01T09:57:55.788Z,84.14
2022-12-01T10:00:28.986Z,84.30
2022-12-01T10:03:33.204Z,84.32
2022-12-01T10:09:26.326Z,84.26
2022-12-01T10:12:06.165Z,84.43
2022-12-01T10:14:36.801Z,84.52
2022-12-01T10:17:16.959Z,84.16
2022-12-01T10:19:55.217Z,84.61
2022-12-01T10:23:09.696Z,83.31
2022-12-01T10:26:00.804Z,83.57
2022-12-01T10:28:30.144Z,83.13
2022-12-01T10:31:11.338Z,83.03
2022-12-01T10:33:53.726Z,83.51
2022-12-01T10:36:21.178Z,82.44
2022-12-01T10:38:47.689Z,82.49
2022-12-01T10:41:15.729Z,81.97
2022-12-01T10:43:49.198Z,82.49
2022-12-01T10:46:42.090Z,82.10
2022-12-01T10:49:11.492Z,80.87
2022-12-01T10:51:55.003Z,80.39
2022-12-01T10:54:25.478Z,80.75
2022-12-01T10:56:57.111Z,80.81
2022-12-01T10:59:32.720Z,80.26
2022-12-01T11:02:04.011Z,80.43
2022-12-01T11:04:44.967Z,80.30
2022-12-01T11:07:22.032Z,81.03
2022-12-01T11:10:03.547Z,79.86
2022-12-01T11:12:30.142Z,79.66
2022-12-01T11:14:57.480Z,79.46
2022-12-01T11:17:31.405Z,79.12
2022-12-01T11:19:58.894Z,78.28
2022-12-01T11:22:29.045Z,79.40
2022-12-01T11:24:55.645Z,78.10
2022-12-01T11:27:24.797Z,78.34
2022-12-01T11:30:20.210Z,78.53
2022-12-01T11:32:53.790Z,78.36
2022-12-01T11:35:23.976Z,78.51
2022-12-01T11:38:30.499Z,77.69
2022-12-01T11:40:57.153Z,77.75
2022-12-01T11:43:32.090Z,77.76
2022-12-01T11:46:03.579Z,77.35
2022-12-01T11:48:32.018Z,77.14
2022-12-01T11:51:03.345Z,76.52
2022-12-01T11:53:34.668Z,76.06
2022-12-01T11:56:20.725Z,76.68
2022-12-01T11:58:49.102Z,76.46
2022-12-01T12:01:54.693Z,76.80
2022-12-01T12:04:46.180Z,77.04
2022-12-01T12:07:53.787Z,77.04
2022-12-01T12:10:51.497Z,76.31
2022-12-01T12:13:24.162Z,75.74
2022-12-01T12:16:12.442Z,76.02
2022-12-01T12:19:00.221Z,76.55
2022-12-01T12:21:51.005Z,77.04
2022-12-01T12:24:20.113Z,77.11
2022-12-01T12:27:02.460Z,77.22
2022-12-01T12:29:35.090Z,77.03
2022-12-01T12:32:20.169Z,76.17
2022-12-01T12:35:09.749Z,75.50
2022-12-01T12:38:15.325Z,74.67
2022-12-01T12:40:53.897Z,74.28
2022-12-01T12:43:47.157Z,74.38
2022-12-01T12:46:22.373Z,74.47
2022-12-01T12:49:23.084Z,74.61
2022-12-01T12:51:52.490Z,74.10
2022-12-01T12:54:22.345Z,74.45
2022-12-01T12:56:54.244Z,74.98
2022-12-01T12:59:34.253Z,74.47
2022-12-01T13:02:14.919Z,73.96
2022-12-01T13:05:00.574Z,73.95
2022-12-01T13:07:47.118Z,73.47
2022-12-01T13:10:47.380Z,72.92
2022-12-01T13:13:31.264Z,73.16
2022-12-01T13:16:01.020Z,73.15
2022-12-01T13:18:40.864Z,72.52
2022-12-01T13:21:09.122Z,73.30
2022-12-01T13:23:38.554Z,73.83
2022-12-01T13:26:08.379Z,73.73
2022-12-01T13:28:40.822Z,74.15
2022-12-01T13:31:11.029Z,74.65
2022-12-01T13:33:39.724Z,74.65
2022-12-01T13:38:58.610Z,74.35
2022-12-01T13:41:31.682Z,73.98
2022-12-01T13:44:07.265Z,73.64
2022-12-01T13:46:58.452Z,72.90
2022-12-01T13:49:46.549Z,72.43
2022-12-01T13:52:16.196Z,72.41
2022-12-01T13:55:00.154Z,72.43
2022-12-01T13:57:29.859Z,73.10
2022-12-01T13:59:59.140Z,73.57
2022-12-01T14:02:28.255Z,73.45
2022-12-01T14:04:55.069Z,73.63
2022-12-01T14:07:32.050Z,73.66
2022-12-01T14:10:22.844Z,73.67
2022-12-01T14:12:51.375Z,73.94
2022-12-01T14:15:40.284Z,73.97
2022-12-01T14:18:33.231Z,73.71
2022-12-01T14:21:01.472Z,73.54
2022-12-01T14:23:34.656Z,73.27
2022-12-01T14:26:34.931Z,74.45
2022-12-01T14:29:01.427Z,74.78
2022-12-01T14:31:34.310Z,74.63
2022-12-01T14:34:18.818Z,74.75
2022-12-01T14:37:02.645Z,74.69
2022-12-01T14:39:32.773Z,75.18
2022-12-01T14:42:03.970Z,75.00
2022-12-01T14:44:36.129Z,74.53
2022-12-01T14:47:11.842Z,74.14
2022-12-01T14:53:09.922Z,73.86
2022-12-01T14:56:00.654Z,73.31
2022-12-01T14:58:29.490Z,72.75
2022-12-01T15:01:13.919Z,72.74
2022-12-01T15:04:00.205Z,72.77
2022-12-01T15:06:29.876Z,73.30
2022-12-01T15:09:34.514Z,73.74
2022-12-01T15:12:06.872Z,73.50
2022-12-01T15:14:36.079Z,73.52
2022-12-01T15:17:05.154Z,73.81
2022-12-01T15:19:37.588Z,73.90
2022-12-01T15:22:27.110Z,74.06
2022-12-01T15:24:53.568Z,74.09
2022-12-01T15:27:28.961Z,73.81
2022-12-01T15:29:58.164Z,73.60
2022-12-01T15:32:25.807Z,73.79
2022-12-01T15:34:54.481Z,73.82
2022-12-01T15:37:23.241Z,74.45
2022-12-01T15:40:00.864Z,74.48
2022-12-01T15:42:34.782Z,74.41
2022-12-01T15:45:14.901Z,73.64
2022-12-01T15:47:42.930Z,73.93
2022-12-01T15:50:33.132Z,74.10
2022-12-01T15:53:03.113Z,73.34
2022-12-01T15:55:38.591Z,73.50
2022-12-01T15:58:16.592Z,74.03
2022-12-01T16:00:54.948Z,73.98
2022-12-01T16:03:21.511Z,73.98
2022-12-01T16:05:47.944Z,74.01
2022-12-01T16:08:23.302Z,74.11
2022-12-01T16:11:10.362Z,74.14
2022-12-01T16:13:48.711Z,73.59
2022-12-01T16:16:34.527Z,74.36
2022-12-01T16:19:07.430Z,74.32
2022-12-01T16:21:41.963Z,74.48
2022-12-01T16:24:19.206Z,74.34
2022-12-01T16:26:55.430Z,74.27
2022-12-01T16:29:23.827Z,74.54
2022-12-01T16:32:18.912Z,74.57
2022-12-01T16:34:46.340Z,74.74
2022-12-01T16:37:14.240Z,74.43
2022-12-01T16:39:40.788Z,75.31
2022-12-01T16:42:13.523Z,74.91
2022-12-01T16:44:40.578Z,75.45
2022-12-01T16:47:17.359Z,75.48
2022-12-01T16:49:43.869Z,74.94
2022-12-01T16:54:57.731Z,75.46
2022-12-01T16:57:24.250Z,74.85
2022-12-01T16:59:50.788Z,75.23
2022-12-01T17:02:20.403Z,75.28
2022-12-01T17:04:46.837Z,75.23
2022-12-01T17:07:13.335Z,75.27
2022-12-01T17:09:39.749Z,75.47
2022-12-01T17:12:06.374Z,75.22
2022-12-01T17:14:33.111Z,75.99
2022-12-01T17:17:00.585Z,75.55
2022-12-01T17:19:27.081Z,76.27
2022-12-01T17:21:55.337Z,76.18
2022-12-01T17:24:21.769Z,75.56
2022-12-01T17:26:48.215Z,76.31
2022-12-01T17:29:14.935Z,76.67
2022-12-01T17:31:42.558Z,77.31
2022-12-01T17:34:09.043Z,77.49
2022-12-01T17:36:35.570Z,77.45
2022-12-01T17:39:02.752Z,77.68
2022-12-01T17:41:35.520Z,77.84
2022-12-01T17:44:03.723Z,77.89
2022-12-01T17:46:30.644Z,78.03
2022-12-01T17:48:57.280Z,78.16
2022-12-01T17:51:23.695Z,78.10
2022-12-01T17:53:50.144Z,77.76
2022-12-01T17:56:17.438Z,77.38
2022-12-01T17:58:44.254Z,78.17
2022-12-01T18:01:26.804Z,78.64
2022-12-01T18:03:58.972Z,79.04
2022-12-01T18:06:26.665Z,79.18
2022-12-01T18:08:53.783Z,78.32
2022-12-01T18:11:20.736Z,78.37
2022-12-01T18:13:49.946Z,77.77
2022-12-01T18:16:19.656Z,77.32
2022-12-01T18:18:46.942Z,77.85
2022-12-01T18:21:15.498Z,77.97
2022-12-01T18:23:42.214Z,78.20
2022-12-01T18:26:15.769Z,78.10
2022-12-01T18:28:43.529Z,78.35
2022-12-01T18:31:12.729Z,77.89
2022-12-01T18:33:40.922Z,78.02
2022-12-01T18:36:28.341Z,77.39
2022-12-01T18:38:57.783Z,76.87
2022-12-01T18:41:24.482Z,76.62
2022-12-01T18:43:51.686Z,77.75
2022-12-01T18:46:20.940Z,78.05
2022-12-01T18:48:53.351Z,77.56
2022-12-01T18:51:20.839Z,77.56
2022-12-01T18:53:47.746Z,77.79
2022-12-01T18:57:35.982Z,78.36
2022-12-01T19:00:06.347Z,78.19
2022-12-01T19:02:33.377Z,78.01
2022-12-01T19:04:59.943Z,78.14
2022-12-01T19:07:29.824Z,78.39
2022-12-01T19:09:56.557Z,78.29
2022-12-01T19:12:22.971Z,78.31
2022-12-01T19:14:49.815Z,77.95
2022-12-01T19:17:16.676Z,78.28
2022-12-01T19:19:43.117Z,78.04
2022-12-01T19:22:09.554Z,77.82
2022-12-01T19:24:36.019Z,77.67
2022-12-01T19:27:02.518Z,77.49
2022-12-01T19:29:28.965Z,77.92
2022-12-01T19:31:55.646Z,78.10
2022-12-01T19:34:22.244Z,78.13
2022-12-01T19:36:49.782Z,78.04
2022-12-01T19:39:16.278Z,78.11
2022-12-01T19:41:42.740Z,78.28
2022-12-01T19:44:09.792Z,78.20
2022-12-01T19:46:36.170Z,78.14
2022-12-01T19:49:03.720Z,78.12
2022-12-01T19:51:33.618Z,78.23
2022-12-01T19:54:00.257Z,78.61
2022-12-01T19:56:28.374Z,78.53
2022-12-01T19:58:55.903Z,78.58
2022-12-01T20:01:22.369Z,78.47
2022-12-01T20:03:52.638Z,78.44
2022-12-01T20:06:22.232Z,78.42
2022-12-01T20:08:49.349Z,78.59
2022-12-01T20:11:16.686Z,78.16
2022-12-01T20:13:45.031Z,78.42
2022-12-01T20:16:13.170Z,78.16
2022-12-01T20:18:40.540Z,78.37
2022-12-01T20:21:22.140Z,78.18
2022-12-01T20:24:00.092Z,78.21
2022-12-01T20:26:31.136Z,78.40
2022-12-01T20:29:02.121Z,78.56
2022-12-01T20:31:34.418Z,78.88
2022-12-01T20:34:05.210Z,78.93
2022-12-01T20:36:31.822Z,78.80
2022-12-01T20:38:58.466Z,79.00
2022-12-01T20:41:25.018Z,78.75
2022-12-01T20:43:51.623Z,78.66
2022-12-01T20:46:18.762Z,78.74
2022-12-01T20:48:45.267Z,78.67
2022-12-01T20:51:14.136Z,78.33
2022-12-01T20:53:47.274Z,77.78
2022-12-01T20:56:26.295Z,77.90
2022-12-01T20:58:52.829Z,77.85
2022-12-01T21:01:19.353Z,78.24
2022-12-01T21:03:46.183Z,77.16
2022-12-01T21:06:14.634Z,76.89
2022-12-01T21:08:43.377Z,77.41
2022-12-01T21:11:45.544Z,77.72
2022-12-01T21:14:19.442Z,78.22
2022-12-01T21:16:49.077Z,78.44
2022-12-01T21:19:25.877Z,77.96
2022-12-01T21:21:52.592Z,77.95
2022-12-01T21:24:33.527Z,78.15
2022-12-01T21:27:18.306Z,78.68
2022-12-01T21:29:47.777Z,78.09
2022-12-01T21:32:18.336Z,78.73
2022-12-01T21:34:47.690Z,78.64
2022-12-01T21:37:21.964Z,77.43
2022-12-01T21:39:50.863Z,77.96
2022-12-01T21:42:25.961Z,77.51
2022-12-01T21:44:52.678Z,77.30
2022-12-01T21:47:21.878Z,76.98
2022-12-01T21:49:54.692Z,76.91
2022-12-01T21:52:40.220Z,77.21
2022-12-01T21:55:15.904Z,77.54
2022-12-01T21:57:53.356Z,77.23
2022-12-01T22:01:02.217Z,78.16
2022-12-01T22:09:53.900Z,77.06
2022-12-01T22:12:37.911Z,77.80
2022-12-01T22:15:50.420Z,78.06
2022-12-01T22:22:14.753Z,78.09
2022-12-01T22:25:08.920Z,77.87
2022-12-01T22:25:54.692Z,78.32
2022-12-01T22:28:40.272Z,77.97
2022-12-01T22:35:11.701Z,78.09
2022-12-01T22:38:00.753Z,77.74
2022-12-01T22:41:09.256Z,78.37
2022-12-01T22:43:50.409Z,78.28
2022-12-01T22:46:50.092Z,78.67
2022-12-01T22:53:22.593Z,79.63
2022-12-01T22:56:52.556Z,79.60
2022-12-01T23:28:35.521Z,79.79
2022-12-01T23:43:49.580Z,80.31
2022-12-01T23:46:34.446Z,80.61
2022-12-01T23:49:42.974Z,80.71
2022-12-01T23:53:05.095Z,79.97
2022-12-01T23:55:49.788Z,80.40
2022-12-01T23:58:41.192Z,80.95
